createdAt,value
2018-12-12T00:00:04.853Z,20.17
2018-12-12T00:02:32.295Z,19.90
2018-12-12T00:04:59.727Z,19.57
2018-12-12T00:07:33.181Z,20.67
2018-12-12T00:10:00.616Z,20.33
2018-12-12T00:12:28.070Z,20.13
2018-12-12T00:14:55.535Z,20.70
2018-12-12T00:17:26.351Z,20.43
2018-12-12T00:19:53.790Z,20.00
2018-12-12T00:22:21.252Z,20.20
2018-12-12T00:24:48.696Z,19.73
2018-12-12T00:27:19.484Z,20.00
2018-12-12T00:29:46.930Z,19.67
2018-12-12T00:32:14.376Z,19.57
2018-12-12T00:34:41.804Z,19.43
2018-12-12T00:37:12.866Z,19.03
2018-12-12T00:39:40.313Z,20.50
2018-12-12T00:42:07.785Z,19.90
2018-12-12T00:44:35.220Z,22.97
2018-12-12T00:47:05.834Z,19.23
2018-12-12T00:49:33.259Z,17.47
2018-12-12T00:52:00.714Z,17.37
2018-12-12T00:54:28.488Z,17.67
2018-12-12T00:56:59.681Z,16.73
2018-12-12T00:59:27.117Z,21.83
2018-12-12T01:01:54.616Z,19.73
2018-12-12T01:04:22.040Z,21.13
2018-12-12T01:06:52.690Z,20.30
2018-12-12T01:09:20.161Z,20.90
2018-12-12T01:11:53.353Z,20.23
2018-12-12T01:14:20.795Z,20.03
2018-12-12T01:16:51.847Z,19.00
2018-12-12T01:19:19.278Z,18.63
2018-12-12T01:21:46.747Z,19.50
2018-12-12T01:24:20.259Z,18.00
2018-12-12T01:26:51.526Z,18.03
2018-12-12T01:29:19.028Z,18.37
2018-12-12T01:31:46.474Z,19.37
2018-12-12T01:34:13.903Z,19.27
2018-12-12T01:36:44.630Z,19.07
2018-12-12T01:39:12.063Z,19.07
2018-12-12T01:41:39.503Z,18.83
2018-12-12T01:44:06.943Z,18.63
2018-12-12T01:46:37.304Z,18.40
2018-12-12T01:49:04.793Z,20.30
2018-12-12T01:51:32.273Z,19.30
2018-12-12T01:53:59.801Z,19.63
2018-12-12T01:56:30.349Z,19.40
2018-12-12T01:58:57.788Z,20.47
2018-12-12T02:01:25.222Z,20.70
2018-12-12T02:03:52.654Z,19.23
2018-12-12T02:06:23.320Z,21.20
2018-12-12T02:08:50.742Z,20.70
2018-12-12T02:11:18.170Z,21.37
2018-12-12T02:13:45.639Z,21.07
2018-12-12T02:16:16.764Z,22.43
2018-12-12T02:18:44.526Z,23.60
2018-12-12T02:21:11.966Z,23.03
2018-12-12T02:23:39.404Z,21.43
2018-12-12T02:26:09.795Z,22.97
2018-12-12T02:28:37.258Z,23.37
2018-12-12T02:31:04.855Z,21.37
2018-12-12T02:33:32.287Z,22.23
2018-12-12T02:36:03.633Z,21.10
2018-12-12T02:38:31.064Z,22.00
2018-12-12T02:40:58.502Z,21.63
2018-12-12T02:43:25.936Z,21.83
2018-12-12T02:45:56.421Z,22.47
2018-12-12T02:48:25.078Z,23.87
2018-12-12T02:50:52.520Z,22.20
2018-12-12T02:53:19.953Z,21.13
2018-12-12T02:55:50.557Z,21.70
2018-12-12T02:58:23.758Z,23.37
2018-12-12T03:00:57.381Z,23.47
2018-12-12T03:03:24.811Z,24.53
2018-12-12T03:05:55.587Z,24.50
2018-12-12T03:08:23.099Z,22.67
2018-12-12T03:10:50.542Z,22.60
2018-12-12T03:13:18.055Z,22.70
2018-12-12T03:15:48.528Z,22.70
2018-12-12T03:18:15.955Z,23.87
2018-12-12T03:20:43.512Z,24.83
2018-12-12T03:23:14.493Z,25.93
2018-12-12T03:25:44.970Z,24.30
2018-12-12T03:28:12.405Z,24.33
2018-12-12T03:30:39.849Z,30.97
2018-12-12T03:33:07.284Z,24.23
2018-12-12T03:35:37.922Z,27.83
2018-12-12T03:38:05.360Z,24.83
2018-12-12T03:40:33.426Z,28.77
2018-12-12T03:43:00.891Z,24.50
2018-12-12T03:45:31.904Z,23.83
2018-12-12T03:47:59.342Z,28.17
2018-12-12T03:50:26.791Z,26.87
2018-12-12T03:52:54.219Z,22.33
2018-12-12T03:55:27.700Z,25.23
2018-12-12T03:57:55.269Z,23.32
2018-12-12T04:00:22.727Z,25.92
2018-12-12T04:02:50.181Z,23.70
2018-12-12T04:05:21.063Z,24.20
2018-12-12T04:07:48.517Z,24.55
2018-12-12T04:10:15.985Z,25.03
2018-12-12T04:12:43.447Z,27.37
2018-12-12T04:15:11.603Z,26.03
2018-12-12T04:17:39.056Z,24.77
2018-12-12T04:20:06.560Z,24.67
2018-12-12T04:22:39.909Z,28.93
2018-12-12T04:25:09.079Z,28.20
2018-12-12T04:27:36.611Z,28.03
2018-12-12T04:30:05.794Z,26.03
2018-12-12T04:32:38.942Z,25.67
2018-12-12T04:35:12.067Z,26.00
2018-12-12T04:37:39.645Z,22.95
2018-12-12T04:40:07.147Z,24.33
2018-12-12T04:42:34.643Z,28.60
2018-12-12T04:45:02.615Z,25.67
2018-12-12T04:47:33.177Z,28.03
2018-12-12T04:50:06.839Z,25.23
2018-12-12T04:52:40.417Z,27.33
2018-12-12T04:55:08.562Z,22.43
2018-12-12T04:57:41.799Z,23.80
2018-12-12T05:00:15.657Z,24.80
2018-12-12T05:02:49.662Z,23.17
2018-12-12T05:05:20.914Z,24.30
2018-12-12T05:07:54.503Z,20.93
2018-12-12T05:10:28.344Z,24.97
2018-12-12T05:13:01.804Z,21.23
2018-12-12T05:15:32.607Z,28.00
2018-12-12T05:18:00.090Z,25.83
2018-12-12T05:20:27.554Z,26.57
2018-12-12T05:22:55.015Z,21.77
2018-12-12T05:25:25.432Z,20.70
2018-12-12T05:27:52.904Z,25.13
2018-12-12T05:30:20.373Z,25.60
2018-12-12T05:32:47.840Z,20.40
2018-12-12T05:35:18.265Z,19.40
2018-12-12T05:37:50.804Z,19.23
2018-12-12T05:40:15.395Z,20.25
2018-12-12T05:42:42.971Z,19.50
2018-12-12T05:45:10.789Z,20.77
2018-12-12T05:47:38.284Z,19.83
2018-12-12T05:50:05.800Z,25.90
2018-12-12T05:52:36.843Z,20.20
2018-12-12T05:55:04.841Z,23.90
2018-12-12T05:57:32.815Z,21.30
2018-12-12T06:00:00.294Z,24.10
2018-12-12T06:02:33.721Z,23.03
2018-12-12T06:05:01.466Z,18.97
2018-12-12T06:07:28.881Z,19.63
2018-12-12T06:09:56.345Z,19.50
2018-12-12T06:12:23.780Z,20.87
2018-12-12T06:14:51.230Z,22.73
2018-12-12T06:17:22.096Z,19.53
2018-12-12T06:19:51.663Z,22.67
2018-12-12T06:22:19.439Z,25.47
2018-12-12T06:24:46.895Z,24.73
2018-12-12T06:27:17.358Z,25.80
2018-12-12T06:29:44.830Z,25.43
2018-12-12T06:32:12.270Z,22.90
2018-12-12T06:34:41.186Z,21.02
2018-12-12T06:37:11.759Z,21.25
2018-12-12T06:39:39.295Z,27.83
2018-12-12T06:42:06.768Z,24.77
2018-12-12T06:44:34.266Z,32.33
2018-12-12T06:47:05.517Z,36.50
2018-12-12T06:49:33.023Z,29.77
2018-12-12T06:52:00.543Z,28.70
2018-12-12T06:54:28.029Z,32.88
2018-12-12T06:56:58.881Z,29.42
2018-12-12T06:59:26.319Z,29.63
2018-12-12T07:01:53.848Z,28.57
2018-12-12T07:04:21.393Z,24.70
2018-12-12T07:06:55.028Z,26.95
2018-12-12T07:09:22.492Z,24.75
2018-12-12T07:11:50.025Z,27.82
2018-12-12T07:14:17.480Z,32.30
2018-12-12T07:16:47.985Z,25.85
2018-12-12T07:19:15.491Z,24.23
2018-12-12T07:21:43.383Z,28.30
2018-12-12T07:24:10.843Z,32.53
2018-12-12T07:26:41.995Z,25.50
2018-12-12T07:29:09.563Z,27.70
2018-12-12T07:31:37.079Z,30.57
2018-12-12T07:34:04.611Z,27.10
2018-12-12T07:36:35.786Z,27.37
2018-12-12T07:39:05.819Z,29.43
2018-12-12T07:41:33.424Z,28.67
2018-12-12T07:44:00.858Z,28.10
2018-12-12T07:46:32.578Z,27.77
2018-12-12T07:49:01.054Z,33.17
2018-12-12T07:51:28.527Z,29.70
2018-12-12T07:53:56.772Z,26.33
2018-12-12T07:56:30.768Z,27.13
2018-12-12T07:58:58.205Z,28.20
2018-12-12T08:01:25.739Z,26.67
2018-12-12T08:03:53.207Z,30.50
2018-12-12T08:06:23.685Z,27.40
2018-12-12T08:08:51.147Z,27.70
2018-12-12T08:11:18.615Z,25.73
2018-12-12T08:13:46.070Z,24.77
2018-12-12T08:16:17.618Z,22.73
2018-12-12T08:18:45.069Z,26.03
2018-12-12T08:21:12.529Z,23.93
2018-12-12T08:23:39.994Z,23.35
2018-12-12T08:26:10.559Z,23.90
2018-12-12T08:28:38.013Z,22.47
2018-12-12T08:31:05.472Z,23.37
2018-12-12T08:33:32.925Z,25.93
2018-12-12T08:36:03.748Z,21.93
2018-12-12T08:38:31.210Z,24.70
2018-12-12T08:40:58.648Z,22.57
2018-12-12T08:43:26.107Z,21.77
2018-12-12T08:45:56.821Z,21.80
2018-12-12T08:48:24.268Z,22.67
2018-12-12T08:50:51.733Z,23.27
2018-12-12T08:53:19.179Z,28.43
2018-12-12T08:55:49.899Z,23.07
2018-12-12T08:58:17.352Z,24.43
2018-12-12T09:00:44.849Z,21.53
2018-12-12T09:03:17.545Z,24.00
2018-12-12T09:05:44.844Z,21.17
2018-12-12T09:08:12.274Z,20.57
2018-12-12T09:10:39.813Z,21.87
2018-12-12T09:13:07.264Z,24.60
2018-12-12T09:15:37.736Z,32.13
2018-12-12T09:18:05.177Z,23.40
2018-12-12T09:20:32.636Z,20.23
2018-12-12T09:23:00.153Z,20.60
2018-12-12T09:25:30.624Z,21.77
2018-12-12T09:27:58.083Z,20.27
2018-12-12T09:30:25.582Z,20.00
2018-12-12T09:32:53.039Z,21.40
2018-12-12T09:35:23.699Z,19.87
2018-12-12T09:37:51.145Z,19.50
2018-12-12T09:40:18.648Z,19.33
2018-12-12T09:42:46.098Z,20.47
2018-12-12T09:45:21.722Z,24.47
2018-12-12T09:47:46.419Z,22.67
2018-12-12T09:50:13.882Z,21.80
2018-12-12T09:52:41.317Z,22.27
2018-12-12T09:55:08.796Z,19.53
2018-12-12T09:57:36.229Z,20.50
2018-12-12T10:00:04.662Z,20.97
2018-12-12T10:02:32.102Z,19.93
2018-12-12T10:04:59.558Z,18.53
2018-12-12T10:07:30.206Z,18.70
2018-12-12T10:09:57.671Z,18.93
2018-12-12T10:12:25.114Z,19.33
2018-12-12T10:14:52.563Z,18.73
2018-12-12T10:17:23.418Z,18.37
2018-12-12T10:19:50.883Z,18.23
2018-12-12T10:22:18.358Z,18.57
2018-12-12T10:24:45.795Z,19.70
2018-12-12T10:27:16.493Z,19.87
2018-12-12T10:29:43.923Z,18.00
2018-12-12T10:32:11.444Z,18.20
2018-12-12T10:34:38.909Z,18.63
2018-12-12T10:37:09.693Z,18.63
2018-12-12T10:39:37.155Z,19.53
2018-12-12T10:42:04.714Z,19.47
2018-12-12T10:44:33.388Z,18.97
2018-12-12T10:47:04.547Z,20.43
2018-12-12T10:49:32.020Z,20.27
2018-12-12T10:51:59.522Z,20.17
2018-12-12T10:54:27.014Z,21.13
2018-12-12T10:56:57.372Z,19.70
2018-12-12T10:59:24.802Z,19.70
2018-12-12T11:01:54.288Z,21.30
2018-12-12T11:04:21.784Z,23.40
2018-12-12T11:06:52.848Z,24.23
2018-12-12T11:09:20.288Z,22.43
2018-12-12T11:11:47.817Z,45.70
2018-12-12T11:14:15.274Z,24.70
2018-12-12T11:16:45.913Z,23.10
2018-12-12T11:19:13.363Z,22.47
2018-12-12T11:21:40.831Z,23.90
2018-12-12T11:24:08.279Z,24.27
2018-12-12T11:26:38.715Z,22.77
2018-12-12T11:29:06.157Z,19.03
2018-12-12T11:31:33.614Z,21.93
2018-12-12T11:34:01.110Z,20.33
2018-12-12T11:36:31.704Z,21.20
2018-12-12T11:38:59.179Z,20.87
2018-12-12T11:41:26.651Z,18.50
2018-12-12T11:43:54.092Z,18.63
2018-12-12T11:46:25.119Z,18.83
2018-12-12T11:48:52.821Z,19.50
2018-12-12T11:51:20.344Z,19.03
2018-12-12T11:53:47.805Z,18.13
2018-12-12T11:56:18.519Z,18.37
2018-12-12T11:58:46.068Z,18.20
2018-12-12T12:01:13.543Z,19.10
2018-12-12T12:03:40.992Z,19.00
2018-12-12T12:06:14.287Z,17.63
2018-12-12T12:08:41.736Z,19.07
2018-12-12T12:11:09.199Z,18.27
2018-12-12T12:13:36.707Z,17.70
2018-12-12T12:16:07.198Z,18.87
2018-12-12T12:18:34.655Z,18.90
2018-12-12T12:21:02.110Z,17.57
2018-12-12T12:23:29.680Z,18.40
2018-12-12T12:26:00.439Z,18.87
2018-12-12T12:28:27.916Z,19.10
2018-12-12T12:30:55.973Z,16.17
2018-12-12T12:33:23.422Z,17.27
2018-12-12T12:35:56.736Z,13.60
2018-12-12T12:38:24.186Z,13.57
2018-12-12T12:40:51.635Z,13.40
2018-12-12T12:43:19.091Z,11.53
2018-12-12T12:45:49.708Z,10.73
2018-12-12T12:48:17.285Z,9.00
2018-12-12T12:50:44.791Z,8.50
2018-12-12T12:53:12.272Z,7.30
2018-12-12T12:55:42.933Z,6.60
2018-12-12T12:58:10.391Z,7.23
2018-12-12T13:00:37.831Z,6.77
2018-12-12T13:03:05.314Z,6.63
2018-12-12T13:05:35.987Z,7.00
2018-12-12T13:08:03.520Z,7.67
2018-12-12T13:10:31.204Z,6.87
2018-12-12T13:12:58.815Z,7.97
2018-12-12T13:15:30.262Z,7.60
2018-12-12T13:17:57.711Z,7.83
2018-12-12T13:20:25.154Z,7.87
2018-12-12T13:22:52.850Z,7.83
2018-12-12T13:25:24.095Z,6.50
2018-12-12T13:27:51.603Z,6.03
2018-12-12T13:30:19.019Z,6.47
2018-12-12T13:32:46.524Z,6.03
2018-12-12T13:35:17.264Z,6.67
2018-12-12T13:37:44.717Z,6.53
2018-12-12T13:40:12.160Z,6.10
2018-12-12T13:42:39.671Z,5.90
2018-12-12T13:45:07.123Z,6.40
2018-12-12T13:47:34.644Z,8.23
2018-12-12T13:50:02.215Z,6.43
2018-12-12T13:52:29.660Z,7.00
2018-12-12T13:54:57.106Z,5.90
2018-12-12T13:57:27.968Z,5.30
2018-12-12T13:59:55.427Z,6.70
2018-12-12T14:02:22.858Z,6.37
2018-12-12T14:04:50.319Z,7.03
2018-12-12T14:07:21.082Z,6.90
2018-12-12T14:09:48.543Z,6.53
2018-12-12T14:12:17.476Z,6.93
2018-12-12T14:14:45.756Z,5.90
2018-12-12T14:17:16.178Z,6.43
2018-12-12T14:19:43.662Z,6.73
2018-12-12T14:22:11.156Z,6.10
2018-12-12T14:24:38.635Z,6.20
2018-12-12T14:27:09.040Z,6.43
2018-12-12T14:29:36.496Z,6.20
2018-12-12T14:32:03.953Z,5.93
2018-12-12T14:34:31.397Z,6.43
2018-12-12T14:37:04.776Z,5.60
2018-12-12T14:39:32.231Z,6.80
2018-12-12T14:41:59.660Z,6.70
2018-12-12T14:44:27.111Z,6.40
2018-12-12T14:46:57.994Z,6.57
2018-12-12T14:49:25.554Z,6.30
2018-12-12T14:51:53.001Z,5.97
2018-12-12T14:54:20.459Z,6.47
2018-12-12T14:56:50.815Z,6.27
2018-12-12T14:59:18.274Z,5.97
2018-12-12T15:01:45.696Z,6.10
2018-12-12T15:04:13.167Z,6.27
2018-12-12T15:06:43.753Z,5.73
2018-12-12T15:09:11.208Z,6.40
2018-12-12T15:11:38.642Z,6.63
2018-12-12T15:14:06.101Z,6.23
2018-12-12T15:16:36.731Z,6.60
2018-12-12T15:19:04.259Z,5.60
2018-12-12T15:21:31.674Z,6.73
2018-12-12T15:23:59.135Z,6.30
2018-12-12T15:26:29.602Z,7.40
2018-12-12T15:28:57.097Z,7.13
2018-12-12T15:31:24.567Z,7.10
2018-12-12T15:33:51.992Z,6.33
2018-12-12T15:36:22.494Z,6.77
2018-12-12T15:38:49.957Z,7.03
2018-12-12T15:41:17.416Z,7.27
2018-12-12T15:43:44.909Z,6.77
2018-12-12T15:46:15.335Z,7.07
2018-12-12T15:48:42.775Z,6.63
2018-12-12T15:51:10.239Z,7.50
2018-12-12T15:53:37.692Z,7.10
2018-12-12T15:56:08.470Z,7.30
2018-12-12T15:58:35.905Z,6.80
2018-12-12T16:01:03.443Z,7.57
2018-12-12T16:03:30.871Z,6.53
2018-12-12T16:06:01.606Z,6.37
2018-12-12T16:08:29.018Z,6.87
2018-12-12T16:10:56.480Z,16.17
2018-12-12T16:13:23.931Z,6.57
2018-12-12T16:15:55.199Z,6.37
2018-12-12T16:18:22.627Z,7.97
2018-12-12T16:20:50.087Z,7.27
2018-12-12T16:23:17.536Z,6.77
2018-12-12T16:25:48.237Z,6.80
2018-12-12T16:28:15.670Z,8.30
2018-12-12T16:30:43.121Z,7.00
2018-12-12T16:33:10.572Z,7.77
2018-12-12T16:35:41.492Z,8.13
2018-12-12T16:38:08.937Z,7.70
2018-12-12T16:40:36.406Z,8.50
2018-12-12T16:43:03.889Z,10.53
2018-12-12T16:45:34.443Z,7.50
2018-12-12T16:48:01.876Z,17.03
2018-12-12T16:50:29.367Z,8.80
2018-12-12T16:52:58.044Z,7.90
2018-12-12T16:55:29.453Z,8.63
2018-12-12T16:57:57.008Z,8.37
2018-12-12T17:00:25.167Z,8.37
2018-12-12T17:02:54.414Z,9.47
2018-12-12T17:05:25.574Z,10.27
2018-12-12T17:07:53.003Z,8.13
2018-12-12T17:10:20.893Z,9.07
2018-12-12T17:12:48.401Z,7.93
2018-12-12T17:15:22.482Z,8.60
2018-12-12T17:17:49.919Z,8.17
2018-12-12T17:20:17.895Z,12.83
2018-12-12T17:22:45.308Z,11.43
2018-12-12T17:25:17.296Z,9.27
2018-12-12T17:27:44.766Z,8.40
2018-12-12T17:30:13.203Z,7.73
2018-12-12T17:32:41.485Z,9.03
2018-12-12T17:35:09.187Z,10.03
2018-12-12T17:37:36.720Z,8.67
2018-12-12T17:40:04.672Z,10.27
2018-12-12T17:42:32.585Z,8.47
2018-12-12T17:45:00.052Z,8.17
2018-12-12T17:47:34.258Z,9.10
2018-12-12T17:50:02.230Z,8.60
2018-12-12T17:52:29.647Z,8.60
2018-12-12T17:54:57.102Z,8.07
2018-12-12T17:57:28.259Z,9.07
2018-12-12T17:59:55.786Z,9.23
2018-12-12T18:02:23.239Z,8.70
2018-12-12T18:04:51.358Z,8.90
2018-12-12T18:07:22.227Z,11.00
2018-12-12T18:09:50.551Z,9.83
2018-12-12T18:12:17.986Z,9.47
2018-12-12T18:14:46.345Z,8.73
2018-12-12T18:17:17.421Z,10.57
2018-12-12T18:19:44.856Z,9.20
2018-12-12T18:22:12.311Z,11.03
2018-12-12T18:24:39.747Z,8.63
2018-12-12T18:27:10.461Z,8.27
2018-12-12T18:29:37.885Z,8.90
2018-12-12T18:32:05.390Z,8.33
2018-12-12T18:34:32.832Z,9.17
2018-12-12T18:37:03.512Z,10.03
2018-12-12T18:39:30.997Z,8.33
2018-12-12T18:41:58.451Z,8.50
2018-12-12T18:44:26.443Z,8.70
2018-12-12T18:46:57.323Z,7.10
2018-12-12T18:49:24.792Z,8.13
2018-12-12T18:51:52.243Z,7.90
2018-12-12T18:54:19.683Z,8.00
2018-12-12T18:56:50.515Z,8.27
2018-12-12T18:59:17.971Z,7.80
2018-12-12T19:01:45.431Z,8.17
2018-12-12T19:04:12.882Z,7.67
2018-12-12T19:06:45.844Z,8.23
2018-12-12T19:09:13.291Z,8.23
2018-12-12T19:11:44.350Z,7.43
2018-12-12T19:14:10.236Z,7.17
2018-12-12T19:16:41.297Z,6.40
2018-12-12T19:19:08.815Z,7.23
2018-12-12T19:21:36.289Z,8.10
2018-12-12T19:24:03.778Z,7.13
2018-12-12T19:26:34.718Z,7.37
2018-12-12T19:29:02.206Z,8.20
2018-12-12T19:31:38.131Z,7.30
2018-12-12T19:34:06.695Z,7.13
2018-12-12T19:36:39.863Z,7.20
2018-12-12T19:39:07.656Z,7.23
2018-12-12T19:41:42.232Z,7.17
2018-12-12T19:44:09.679Z,7.30
2018-12-12T19:46:44.411Z,6.90
2018-12-12T19:49:13.636Z,7.17
2018-12-12T19:51:41.223Z,6.77
2018-12-12T19:54:08.664Z,6.30
2018-12-12T19:56:39.538Z,7.83
2018-12-12T19:59:06.975Z,8.47
2018-12-12T20:01:34.422Z,6.77
2018-12-12T20:04:01.857Z,7.63
2018-12-12T20:06:32.594Z,7.60
2018-12-12T20:09:00.894Z,6.97
2018-12-12T20:11:31.916Z,6.50
2018-12-12T20:13:59.359Z,6.87
2018-12-12T20:16:30.235Z,6.30
2018-12-12T20:18:57.794Z,6.47
2018-12-12T20:21:25.211Z,6.90
2018-12-12T20:23:52.778Z,6.47
2018-12-12T20:26:23.414Z,8.37
2018-12-12T20:28:50.890Z,10.33
2018-12-12T20:31:19.322Z,7.23
2018-12-12T20:33:46.750Z,6.83
2018-12-12T20:36:17.636Z,6.63
2018-12-12T20:38:45.201Z,6.90
2018-12-12T20:41:12.679Z,12.13
2018-12-12T20:43:40.134Z,9.30
2018-12-12T20:46:11.311Z,6.83
2018-12-12T20:48:38.805Z,7.80
2018-12-12T20:51:06.298Z,7.83
2018-12-12T20:53:33.735Z,6.77
2018-12-12T20:56:07.430Z,6.23
2018-12-12T20:58:34.860Z,7.10
2018-12-12T21:01:02.306Z,7.20
2018-12-12T21:03:29.789Z,6.87
2018-12-12T21:06:00.567Z,7.30
2018-12-12T21:08:28.195Z,7.47
2018-12-12T21:10:55.655Z,7.20
2018-12-12T21:13:23.128Z,6.97
2018-12-12T21:15:53.605Z,6.33
2018-12-12T21:18:21.979Z,6.10
2018-12-12T21:20:49.470Z,6.57
2018-12-12T21:23:16.893Z,6.63
2018-12-12T21:25:47.890Z,6.33
2018-12-12T21:28:15.484Z,6.30
2018-12-12T21:30:42.961Z,6.43
2018-12-12T21:33:10.407Z,10.00
2018-12-12T21:35:41.655Z,6.57
2018-12-12T21:38:09.165Z,6.13
2018-12-12T21:40:36.604Z,6.03
2018-12-12T21:43:04.078Z,6.00
2018-12-12T21:45:34.711Z,5.60
2018-12-12T21:48:02.203Z,5.63
2018-12-12T21:50:39.315Z,5.60
2018-12-12T21:53:06.813Z,5.70
2018-12-12T21:55:37.479Z,5.47
2018-12-12T21:58:04.946Z,5.30
2018-12-12T22:00:32.459Z,5.17
2018-12-12T22:02:59.923Z,4.80
2018-12-12T22:05:30.671Z,5.30
2018-12-12T22:07:58.195Z,5.47
2018-12-12T22:10:25.655Z,5.67
2018-12-12T22:12:53.117Z,5.70
2018-12-12T22:15:24.503Z,5.80
2018-12-12T22:17:52.084Z,6.28
2018-12-12T22:20:19.518Z,5.67
2018-12-12T22:22:47.132Z,5.67
2018-12-12T22:25:17.460Z,6.03
2018-12-12T22:27:44.943Z,5.73
2018-12-12T22:30:12.442Z,5.70
2018-12-12T22:32:39.906Z,6.20
2018-12-12T22:35:08.119Z,6.20
2018-12-12T22:37:35.573Z,6.57
2018-12-12T22:40:03.695Z,6.47
2018-12-12T22:42:31.141Z,5.63
2018-12-12T22:44:58.596Z,6.20
2018-12-12T22:47:29.764Z,5.47
2018-12-12T22:49:58.088Z,6.40
2018-12-12T22:52:25.579Z,6.33
2018-12-12T22:54:53.019Z,6.63
2018-12-12T22:57:26.246Z,5.50
2018-12-12T22:59:53.703Z,6.30
2018-12-12T23:02:21.162Z,6.13
2018-12-12T23:04:48.594Z,5.13
2018-12-12T23:07:19.351Z,6.10
2018-12-12T23:09:47.689Z,5.83
2018-12-12T23:12:15.152Z,5.93
2018-12-12T23:14:42.627Z,6.27
2018-12-12T23:17:13.757Z,5.93
2018-12-12T23:19:42.025Z,6.00
2018-12-12T23:22:09.489Z,5.93
2018-12-12T23:24:37.023Z,6.90
2018-12-12T23:27:07.721Z,6.57
2018-12-12T23:29:35.185Z,6.30
2018-12-12T23:32:02.639Z,7.10
2018-12-12T23:34:30.082Z,6.85
2018-12-12T23:37:00.764Z,6.40
2018-12-12T23:39:28.215Z,5.95
2018-12-12T23:41:55.639Z,5.95
2018-12-12T23:44:23.070Z,6.05
2018-12-12T23:46:53.832Z,6.67
2018-12-12T23:49:21.265Z,6.43
2018-12-12T23:51:48.715Z,6.70
2018-12-12T23:54:16.165Z,6.47
2018-12-12T23:56:46.672Z,6.87
2018-12-12T23:59:14.107Z,6.87
